Test XHTML 1.0 Strict Page for WU-History Testing
Histórico de la Estación METEOCORUÑA
Diario Datos del Abril 17, 2018 Unidades:  Ambos    Inglés   Metrico
« Prev Dia
Sig Dia »
Diario Semanal Mensual Anual Rango
  Max: Min: Media:
Temp: TemperatureC °F /  -17.8 °C 12.8 °F /  -10.7 °C 17.3 °F /  -8.2 °C
Rocío: DewpointC °F /  -17.8 °C -73.3 °F /  -58.5 °C 7.7 °F /  -13.5 °C
Humedad: Humidity % 55 % 66 %
Vel. viento: WindSpeedKMH mph /  0 km/h - 23.9 mph /  38.5 km/h
Racha: WindSpeedGustKMH mph /  0 km/h - -
Viento:- - SSE
Presión: PressurehPa in /  0 hPa -3386.0 in /  -114650 hPa -
Lluvia: 0.0 in /  0 mm    
Historical Graphs
 
 
Busqueda de Abril 17, 2018
Hora Temp Rocío Presión Viento Vel. viento Racha Humedad Ratio lluvia (/hora) Radiación
TemperatureC °F /  -17.8 °C DewpointC °F /  -17.8 °C PressurehPa in /  0 hPa Calm     Humidity % HourlyPrecipMM in /  0 mm SolarRadiationWatts/m^2 W/m2
00:11 12.8 °F /  -10.7 °C -73.3 °F /  -58.5 °C -3386.0 in /  -114650 hPa SE 3.2 mph /  5.1 km/h 20.9 mph /  33.6 km/h 68 % 0.0 in /  0 mm 0 W/m2
00:16 12.8 °F /  -10.7 °C 6.8 °F /  -14 °C 1017.8 in /  34462.7 hPa SE 6.4 mph /  10.3 km/h 20.9 mph /  33.6 km/h 67 % 0.0 in /  0 mm 0 W/m2
01:21 13.1 °F /  -10.5 °C 7.1 °F /  -13.8 °C 1017.8 in /  34462.7 hPa SSE 17.7 mph /  28.5 km/h 35.4 mph /  57 km/h 67 % 0.0 in /  0 mm 0 W/m2
01:26 13.1 °F /  -10.5 °C 7.1 °F /  -13.8 °C 1017.5 in /  34452.6 hPa SE 16.1 mph /  25.9 km/h 37.0 mph /  59.5 km/h 67 % 0.0 in /  0 mm 0 W/m2
01:56 12.9 °F /  -10.6 °C 7.1 °F /  -13.8 °C 1017.8 in /  34462.7 hPa SSE 16.1 mph /  25.9 km/h 35.4 mph /  57 km/h 68 % 0.0 in /  0 mm 0 W/m2
02:11 12.8 °F /  -10.7 °C -73.3 °F /  -58.5 °C -3386.0 in /  -114650 hPa SE 9.7 mph /  15.6 km/h 29.0 mph /  46.7 km/h 68 % 0.0 in /  0 mm 0 W/m2
02:16 12.8 °F /  -10.7 °C 7.2 °F /  -13.8 °C -3386.0 in /  -114650 hPa SE 16.1 mph /  25.9 km/h 33.8 mph /  54.4 km/h 69 % 0.0 in /  0 mm 0 W/m2
02:26 12.8 °F /  -10.7 °C -73.3 °F /  -58.5 °C -3386.0 in /  -114650 hPa SSE 4.8 mph /  7.7 km/h 32.2 mph /  51.8 km/h 70 % 0.0 in /  0 mm 0 W/m2
03:26 12.8 °F /  -10.7 °C -73.3 °F /  -58.5 °C -3386.0 in /  -114650 hPa SSE 17.7 mph /  28.5 km/h 33.8 mph /  54.4 km/h 71 % 0.0 in /  0 mm 0 W/m2
03:31 12.8 °F /  -10.7 °C -73.3 °F /  -58.5 °C -3386.0 in /  -114650 hPa SE 6.4 mph /  10.3 km/h 32.2 mph /  51.8 km/h 72 % 0.0 in /  0 mm 0 W/m2
03:36 12.8 °F /  -10.7 °C -73.3 °F /  -58.5 °C -3386.0 in /  -114650 hPa SE 8.0 mph /  12.9 km/h 17.7 mph /  28.5 km/h 72 % 0.0 in /  0 mm 0 W/m2
03:46 13.1 °F /  -10.5 °C 8.2 °F /  -13.2 °C 1017.5 in /  34452.6 hPa SE 12.9 mph /  20.8 km/h 30.6 mph /  49.2 km/h 72 % 0.0 in /  0 mm 0 W/m2
03:56 13.3 °F /  -10.4 °C -73.3 °F /  -58.5 °C -3386.0 in /  -114650 hPa South 9.7 mph /  15.6 km/h 33.8 mph /  54.4 km/h 73 % 0.0 in /  0 mm 0 W/m2
04:01 13.3 °F /  -10.4 °C -73.3 °F /  -58.5 °C -3386.0 in /  -114650 hPa South 17.7 mph /  28.5 km/h 40.2 mph /  64.7 km/h 73 % 0.0 in /  0 mm 0 W/m2
04:06 13.4 °F /  -10.3 °C 8.8 °F /  -12.9 °C 1017.5 in /  34452.6 hPa SSE 17.7 mph /  28.5 km/h 37.0 mph /  59.5 km/h 74 % 0.0 in /  0 mm 0 W/m2
04:11 13.4 °F /  -10.3 °C 8.8 °F /  -12.9 °C 1017.5 in /  34452.6 hPa SSE 17.7 mph /  28.5 km/h 29.0 mph /  46.7 km/h 74 % 0.0 in /  0 mm 0 W/m2
04:16 13.4 °F /  -10.3 °C 8.8 °F /  -12.9 °C 1017.5 in /  34452.6 hPa SE 14.5 mph /  23.3 km/h 40.2 mph /  64.7 km/h 74 % 0.0 in /  0 mm 0 W/m2
04:21 13.4 °F /  -10.3 °C 8.8 °F /  -12.9 °C 1017.5 in /  34452.6 hPa SSE 14.5 mph /  23.3 km/h 40.2 mph /  64.7 km/h 74 % 0.0 in /  0 mm 0 W/m2
04:26 13.4 °F /  -10.3 °C 8.8 °F /  -12.9 °C 1017.5 in /  34452.6 hPa South 16.1 mph /  25.9 km/h 35.4 mph /  57 km/h 74 % 0.0 in /  0 mm 0 W/m2
04:31 13.4 °F /  -10.3 °C 8.8 °F /  -12.9 °C 1017.5 in /  34452.6 hPa SSE 14.5 mph /  23.3 km/h 29.0 mph /  46.7 km/h 74 % 0.0 in /  0 mm 0 W/m2
04:41 13.4 °F /  -10.3 °C 8.7 °F /  -12.9 °C 1017.2 in /  34442.4 hPa SE 14.5 mph /  23.3 km/h 38.6 mph /  62.1 km/h 73 % 0.0 in /  0 mm 0 W/m2
04:46 13.4 °F /  -10.3 °C 8.7 °F /  -12.9 °C 1017.5 in /  34452.6 hPa SSE 17.7 mph /  28.5 km/h 46.7 mph /  75.2 km/h 73 % 0.0 in /  0 mm 0 W/m2
04:51 13.5 °F /  -10.3 °C 8.8 °F /  -12.9 °C 1017.2 in /  34442.4 hPa SSE 16.1 mph /  25.9 km/h 41.8 mph /  67.3 km/h 73 % 0.0 in /  0 mm 0 W/m2
04:56 13.4 °F /  -10.3 °C 8.7 °F /  -12.9 °C 1017.5 in /  34452.6 hPa SSE 17.7 mph /  28.5 km/h 43.4 mph /  69.8 km/h 73 % 0.0 in /  0 mm 0 W/m2
05:06 13.6 °F /  -10.2 °C 8.7 °F /  -12.9 °C 1017.8 in /  34462.7 hPa SSE 20.9 mph /  33.6 km/h 41.8 mph /  67.3 km/h 72 % 0.0 in /  0 mm 0 W/m2
05:16 13.5 °F /  -10.3 °C 8.6 °F /  -13 °C 1017.8 in /  34462.7 hPa SSE 19.3 mph /  31.1 km/h 32.2 mph /  51.8 km/h 72 % 0.0 in /  0 mm 0 W/m2
05:56 13.4 °F /  -10.3 °C 8.4 °F /  -13.1 °C 1017.5 in /  34452.6 hPa SSE 19.3 mph /  31.1 km/h 40.2 mph /  64.7 km/h 72 % 0.0 in /  0 mm 0 W/m2
06:01 13.4 °F /  -10.3 °C 8.7 °F /  -12.9 °C 1017.5 in /  34452.6 hPa SE 17.7 mph /  28.5 km/h 35.4 mph /  57 km/h 73 % 0.0 in /  0 mm 0 W/m2
06:17 13.4 °F /  -10.3 °C 8.9 °F /  -12.8 °C 1017.2 in /  34442.4 hPa SSE 38.9 mph /  62.6 km/h 38.9 mph /  62.6 km/h 74 % 0.0 in /  0 mm 0.0 W/m2
06:22 13.4 °F /  -10.3 °C 8.8 °F /  -12.9 °C 1017.5 in /  34452.6 hPa SSE 17.7 mph /  28.5 km/h 45.1 mph /  72.6 km/h 74 % 0.0 in /  0 mm 0 W/m2
06:27 13.5 °F /  -10.3 °C 8.9 °F /  -12.8 °C 1017.8 in /  34462.7 hPa SSE 19.3 mph /  31.1 km/h 48.3 mph /  77.7 km/h 74 % 0.0 in /  0 mm 0 W/m2
06:32 13.5 °F /  -10.3 °C 8.9 °F /  -12.8 °C 1017.5 in /  34452.6 hPa SSE 20.9 mph /  33.6 km/h 40.2 mph /  64.7 km/h 74 % 0.0 in /  0 mm 0 W/m2
06:37 13.5 °F /  -10.3 °C 9.2 °F /  -12.7 °C 1017.8 in /  34462.7 hPa SSE 17.7 mph /  28.5 km/h 40.2 mph /  64.7 km/h 75 % 0.0 in /  0 mm 0 W/m2
06:42 13.5 °F /  -10.3 °C 9.2 °F /  -12.7 °C 1017.5 in /  34452.6 hPa SE 17.7 mph /  28.5 km/h 37.0 mph /  59.5 km/h 75 % 0.0 in /  0 mm 0 W/m2
06:47 13.6 °F /  -10.2 °C 9.2 °F /  -12.7 °C 1017.8 in /  34462.7 hPa SSE 17.7 mph /  28.5 km/h 40.2 mph /  64.7 km/h 75 % 0.0 in /  0 mm 0 W/m2
06:52 13.6 °F /  -10.2 °C 9.2 °F /  -12.7 °C 1017.5 in /  34452.6 hPa SSE 16.1 mph /  25.9 km/h 35.4 mph /  57 km/h 75 % 0.0 in /  0 mm 0 W/m2
06:57 13.6 °F /  -10.2 °C 9.2 °F /  -12.7 °C 1017.8 in /  34462.7 hPa SSE 14.5 mph /  23.3 km/h 33.8 mph /  54.4 km/h 75 % 0.0 in /  0 mm 0 W/m2
07:02 13.6 °F /  -10.2 °C 9.4 °F /  -12.6 °C 1017.8 in /  34462.7 hPa SSE 12.9 mph /  20.8 km/h 35.4 mph /  57 km/h 76 % 0.0 in /  0 mm 0 W/m2
07:07 13.7 °F /  -10.2 °C 9.6 °F /  -12.4 °C 1017.8 in /  34462.7 hPa South 16.1 mph /  25.9 km/h 40.2 mph /  64.7 km/h 76 % 0.0 in /  0 mm 0 W/m2
07:12 13.8 °F /  -10.1 °C 9.7 °F /  -12.4 °C 1018.2 in /  34476.3 hPa SE 19.3 mph /  31.1 km/h 32.2 mph /  51.8 km/h 76 % 0.0 in /  0 mm 0 W/m2
08:23 13.9 °F /  -10.1 °C -73.3 °F /  -58.5 °C -3386.0 in /  -114650 hPa SE 30.6 mph /  49.2 km/h 40.2 mph /  64.7 km/h 78 % 0.0 in /  0 mm 40 W/m2
08:48 14.1 °F /  -9.9 °C 10.1 °F /  -12.2 °C 1018.8 in /  34496.6 hPa SSE 16.1 mph /  25.9 km/h 24.1 mph /  38.8 km/h 77 % 0.0 in /  0 mm 83 W/m2
08:53 14.2 °F /  -9.9 °C 10.2 °F /  -12.1 °C 1018.5 in /  34486.4 hPa South 33.8 mph /  54.4 km/h 33.8 mph /  54.4 km/h 77 % 0.0 in /  0 mm 69.0 W/m2
08:58 14.3 °F /  -9.8 °C 10.3 °F /  -12.1 °C 1018.5 in /  34486.4 hPa South 37.0 mph /  59.5 km/h 37.0 mph /  59.5 km/h 77 % 0.0 in /  0 mm 146.0 W/m2
09:03 14.6 °F /  -9.7 °C 10.4 °F /  -12 °C 1018.8 in /  34496.6 hPa SSE 16.1 mph /  25.9 km/h 38.6 mph /  62.1 km/h 76 % 0.0 in /  0 mm 165 W/m2
09:08 14.6 °F /  -9.7 °C 10.4 °F /  -12 °C 1018.8 in /  34496.6 hPa South 46.3 mph /  74.5 km/h 46.3 mph /  74.5 km/h 76 % 0.0 in /  0 mm 179.0 W/m2
09:13 14.8 °F /  -9.6 °C 10.6 °F /  -11.9 °C 1018.8 in /  34496.6 hPa SSE 29.0 mph /  46.7 km/h 29.0 mph /  46.7 km/h 76 % 0.0 in /  0 mm 158.0 W/m2
09:18 14.8 °F /  -9.6 °C 10.4 °F /  -12 °C 1018.8 in /  34496.6 hPa SE 16.1 mph /  25.9 km/h 35.4 mph /  57 km/h 75 % 0.0 in /  0 mm 207 W/m2
09:23 14.9 °F /  -9.5 °C 10.5 °F /  -11.9 °C 1019.2 in /  34510.1 hPa SE 16.1 mph /  25.9 km/h 37.0 mph /  59.5 km/h 75 % 0.0 in /  0 mm 225 W/m2
09:28 14.9 °F /  -9.5 °C 10.3 °F /  -12.1 °C 1018.5 in /  34486.4 hPa South 42.6 mph /  68.6 km/h 42.6 mph /  68.6 km/h 74 % 0.0 in /  0 mm 243.0 W/m2
09:33 15.1 °F /  -9.4 °C 10.5 °F /  -11.9 °C 1019.2 in /  34510.1 hPa South 17.7 mph /  28.5 km/h 45.1 mph /  72.6 km/h 74 % 0.0 in /  0 mm 255 W/m2
09:38 15.2 °F /  -9.3 °C 10.6 °F /  -11.9 °C 1019.9 in /  34533.8 hPa SE 17.7 mph /  28.5 km/h 45.1 mph /  72.6 km/h 74 % 0.0 in /  0 mm 272 W/m2
09:43 15.2 °F /  -9.3 °C 10.6 °F /  -11.9 °C 1018.8 in /  34496.6 hPa SE 49.9 mph /  80.3 km/h 49.9 mph /  80.3 km/h 74 % 0.0 in /  0 mm 288.0 W/m2
09:48 15.2 °F /  -9.3 °C 10.6 °F /  -11.9 °C 1019.9 in /  34533.8 hPa SSE 19.3 mph /  31.1 km/h 33.8 mph /  54.4 km/h 74 % 0.0 in /  0 mm 257 W/m2
09:53 15.3 °F /  -9.3 °C 10.5 °F /  -11.9 °C 1019.2 in /  34510.1 hPa SSE 20.9 mph /  33.6 km/h 35.4 mph /  57 km/h 73 % 0.0 in /  0 mm 315 W/m2
09:58 15.4 °F /  -9.2 °C 10.6 °F /  -11.9 °C 1018.8 in /  34496.6 hPa SSE 30.6 mph /  49.2 km/h 30.6 mph /  49.2 km/h 73 % 0.0 in /  0 mm 332.0 W/m2
10:03 15.6 °F /  -9.1 °C 10.7 °F /  -11.8 °C 1019.2 in /  34510.1 hPa ESE 38.9 mph /  62.6 km/h 38.9 mph /  62.6 km/h 73 % 0.0 in /  0 mm 348.0 W/m2
10:08 15.7 °F /  -9.1 °C 10.8 °F /  -11.8 °C 1018.8 in /  34496.6 hPa SSE 41.8 mph /  67.3 km/h 41.8 mph /  67.3 km/h 73 % 0.0 in /  0 mm 362.0 W/m2
10:13 15.8 °F /  -9 °C 11.0 °F /  -11.7 °C 1019.2 in /  34510.1 hPa ESE 38.9 mph /  62.6 km/h 38.9 mph /  62.6 km/h 73 % 0.0 in /  0 mm 374.0 W/m2
10:18 16.1 °F /  -8.8 °C 11.1 °F /  -11.6 °C 1019.5 in /  34520.3 hPa SSE 12.9 mph /  20.8 km/h 27.4 mph /  44.1 km/h 72 % 0.0 in /  0 mm 390 W/m2
10:23 16.0 °F /  -8.9 °C 10.9 °F /  -11.7 °C 1019.2 in /  34510.1 hPa SE 35.4 mph /  57 km/h 35.4 mph /  57 km/h 72 % 0.0 in /  0 mm 399.0 W/m2
10:28 15.9 °F /  -8.9 °C 10.9 °F /  -11.7 °C 1019.5 in /  34520.3 hPa SE 48.1 mph /  77.4 km/h 48.1 mph /  77.4 km/h 72 % 0.0 in /  0 mm 418.0 W/m2
10:33 16.0 °F /  -8.9 °C 10.7 °F /  -11.8 °C 1019.2 in /  34510.1 hPa SW 53.7 mph /  86.4 km/h 53.7 mph /  86.4 km/h 71 % 0.0 in /  0 mm 431.0 W/m2
10:38 16.1 °F /  -8.8 °C 11.0 °F /  -11.7 °C 1018.8 in /  34496.6 hPa SSE 44.4 mph /  71.5 km/h 44.4 mph /  71.5 km/h 72 % 0.0 in /  0 mm 445.0 W/m2
10:43 16.1 °F /  -8.8 °C 10.8 °F /  -11.8 °C 1019.2 in /  34510.1 hPa South 37.0 mph /  59.5 km/h 37.0 mph /  59.5 km/h 71 % 0.0 in /  0 mm 461.0 W/m2
10:48 16.3 °F /  -8.7 °C 11.1 °F /  -11.6 °C 1019.2 in /  34510.1 hPa SE 40.2 mph /  64.7 km/h 40.2 mph /  64.7 km/h 71 % 0.0 in /  0 mm 473.0 W/m2
10:53 16.4 °F /  -8.7 °C 10.9 °F /  -11.7 °C 1019.2 in /  34510.1 hPa SSE 44.4 mph /  71.5 km/h 44.4 mph /  71.5 km/h 70 % 0.0 in /  0 mm 485.0 W/m2
10:58 16.3 °F /  -8.7 °C 10.8 °F /  -11.8 °C 1019.2 in /  34510.1 hPa SSE 46.7 mph /  75.2 km/h 46.7 mph /  75.2 km/h 70 % 0.0 in /  0 mm 490.0 W/m2
11:03 16.7 °F /  -8.5 °C 10.9 °F /  -11.7 °C 1019.2 in /  34510.1 hPa South 31.5 mph /  50.7 km/h 31.5 mph /  50.7 km/h 69 % 0.0 in /  0 mm 476.0 W/m2
11:08 16.7 °F /  -8.5 °C 11.0 °F /  -11.7 °C 1019.5 in /  34520.3 hPa SSE 19.3 mph /  31.1 km/h 37.0 mph /  59.5 km/h 69 % 0.0 in /  0 mm 457 W/m2
11:13 17.1 °F /  -8.3 °C 11.6 °F /  -11.3 °C 1019.2 in /  34510.1 hPa SE 40.2 mph /  64.7 km/h 40.2 mph /  64.7 km/h 70 % 0.0 in /  0 mm 436.0 W/m2
11:18 16.9 °F /  -8.4 °C 10.9 °F /  -11.7 °C 1019.9 in /  34533.8 hPa South 19.3 mph /  31.1 km/h 49.9 mph /  80.3 km/h 68 % 0.0 in /  0 mm 443 W/m2
11:23 17.1 °F /  -8.3 °C 11.2 °F /  -11.6 °C 1019.5 in /  34520.3 hPa SSE 46.3 mph /  74.5 km/h 46.3 mph /  74.5 km/h 68 % 0.0 in /  0 mm 464.0 W/m2
11:28 17.6 °F /  -8 °C 11.6 °F /  -11.3 °C 1019.5 in /  34520.3 hPa ESE 25.7 mph /  41.4 km/h 25.7 mph /  41.4 km/h 68 % 0.0 in /  0 mm 475.0 W/m2
11:33 17.7 °F /  -7.9 °C 11.2 °F /  -11.6 °C 1019.5 in /  34520.3 hPa ESE 35.2 mph /  56.6 km/h 35.2 mph /  56.6 km/h 66 % 0.0 in /  0 mm 534.0 W/m2
11:38 17.8 °F /  -7.9 °C 11.6 °F /  -11.3 °C 1019.9 in /  34533.8 hPa SSE 14.5 mph /  23.3 km/h 32.2 mph /  51.8 km/h 67 % 0.0 in /  0 mm 526 W/m2
11:43 17.9 °F /  -7.8 °C 11.7 °F /  -11.3 °C 1019.5 in /  34520.3 hPa South 24.1 mph /  38.8 km/h 24.1 mph /  38.8 km/h 67 % 0.0 in /  0 mm 531.0 W/m2
11:48 18.3 °F /  -7.6 °C 11.8 °F /  -11.2 °C 1019.9 in /  34533.8 hPa SSE 14.5 mph /  23.3 km/h 37.0 mph /  59.5 km/h 66 % 0.0 in /  0 mm 517 W/m2
11:53 18.3 °F /  -7.6 °C 11.8 °F /  -11.2 °C 1019.5 in /  34520.3 hPa South 25.7 mph /  41.4 km/h 25.7 mph /  41.4 km/h 66 % 0.0 in /  0 mm 508.0 W/m2
11:58 18.3 °F /  -7.6 °C 11.6 °F /  -11.3 °C 1019.5 in /  34520.3 hPa WSW 33.3 mph /  53.6 km/h 33.3 mph /  53.6 km/h 65 % 0.0 in /  0 mm 527.0 W/m2
12:03 18.4 °F /  -7.6 °C 11.7 °F /  -11.3 °C 1019.9 in /  34533.8 hPa South 43.4 mph /  69.8 km/h 43.4 mph /  69.8 km/h 65 % 0.0 in /  0 mm 545.0 W/m2
12:08 18.3 °F /  -7.6 °C 11.6 °F /  -11.3 °C 1019.5 in /  34520.3 hPa SSE 38.9 mph /  62.6 km/h 38.9 mph /  62.6 km/h 65 % 0.0 in /  0 mm 596.0 W/m2
12:13 18.3 °F /  -7.6 °C 11.6 °F /  -11.3 °C 1019.5 in /  34520.3 hPa South 38.9 mph /  62.6 km/h 38.9 mph /  62.6 km/h 65 % 0.0 in /  0 mm 656.0 W/m2
12:18 18.6 °F /  -7.4 °C 11.9 °F /  -11.2 °C 1019.5 in /  34520.3 hPa SSE 27.8 mph /  44.7 km/h 27.8 mph /  44.7 km/h 65 % 0.0 in /  0 mm 715.0 W/m2
12:23 18.8 °F /  -7.3 °C 11.9 °F /  -11.2 °C 1019.5 in /  34520.3 hPa South 35.4 mph /  57 km/h 35.4 mph /  57 km/h 64 % 0.0 in /  0 mm 772.0 W/m2
12:28 19.0 °F /  -7.2 °C 12.1 °F /  -11.1 °C 1019.5 in /  34520.3 hPa SE 29.0 mph /  46.7 km/h 29.0 mph /  46.7 km/h 64 % 0.0 in /  0 mm 882.0 W/m2
12:33 19.1 °F /  -7.2 °C 12.1 °F /  -11.1 °C 1019.5 in /  34520.3 hPa ESE 31.5 mph /  50.7 km/h 31.5 mph /  50.7 km/h 64 % 0.0 in /  0 mm 793.0 W/m2
12:38 18.9 °F /  -7.3 °C 12.0 °F /  -11.1 °C 1019.5 in /  34520.3 hPa South 35.2 mph /  56.6 km/h 35.2 mph /  56.6 km/h 64 % 0.0 in /  0 mm 803.0 W/m2
12:43 19.3 °F /  -7.1 °C 12.1 °F /  -11.1 °C 1019.5 in /  34520.3 hPa SE 46.7 mph /  75.2 km/h 46.7 mph /  75.2 km/h 63 % 0.0 in /  0 mm 926.0 W/m2
12:48 18.9 °F /  -7.3 °C 11.7 °F /  -11.3 °C 1019.9 in /  34533.8 hPa South 48.3 mph /  77.7 km/h 48.3 mph /  77.7 km/h 63 % 0.0 in /  0 mm 861.0 W/m2
12:53 19.1 °F /  -7.2 °C 12.1 °F /  -11.1 °C 1019.5 in /  34520.3 hPa South 38.6 mph /  62.1 km/h 38.6 mph /  62.1 km/h 64 % 0.0 in /  0 mm 838.0 W/m2
12:58 19.3 °F /  -7.1 °C 12.1 °F /  -11.1 °C 1019.9 in /  34533.8 hPa SSW 37.0 mph /  59.5 km/h 37.0 mph /  59.5 km/h 63 % 0.0 in /  0 mm 937.0 W/m2
13:03 19.2 °F /  -7.1 °C 12.0 °F /  -11.1 °C 1020.2 in /  34544 hPa SSE 16.1 mph /  25.9 km/h 37.0 mph /  59.5 km/h 63 % 0.0 in /  0 mm 346 W/m2
13:08 19.2 °F /  -7.1 °C 12.2 °F /  -11 °C 1019.5 in /  34520.3 hPa SSE 37.0 mph /  59.5 km/h 37.0 mph /  59.5 km/h 64 % 0.0 in /  0 mm 250.0 W/m2
13:13 19.2 °F /  -7.1 °C 12.2 °F /  -11 °C 1019.9 in /  34533.8 hPa South 17.7 mph /  28.5 km/h 29.0 mph /  46.7 km/h 64 % 0.0 in /  0 mm 292 W/m2
13:18 19.6 °F /  -6.9 °C 12.6 °F /  -10.8 °C 1019.9 in /  34533.8 hPa SSE 14.5 mph /  23.3 km/h 30.6 mph /  49.2 km/h 64 % 0.0 in /  0 mm 826 W/m2
13:23 19.8 °F /  -6.8 °C 12.3 °F /  -10.9 °C 1019.5 in /  34520.3 hPa SSE 33.8 mph /  54.4 km/h 33.8 mph /  54.4 km/h 62 % 0.0 in /  0 mm 958.0 W/m2
13:28 19.7 °F /  -6.8 °C 12.4 °F /  -10.9 °C 1019.5 in /  34520.3 hPa SE 19.3 mph /  31.1 km/h 19.3 mph /  31.1 km/h 63 % 0.0 in /  0 mm 967.0 W/m2
13:33 19.7 °F /  -6.8 °C 12.7 °F /  -10.7 °C 1019.5 in /  34520.3 hPa South 24.1 mph /  38.8 km/h 24.1 mph /  38.8 km/h 64 % 0.0 in /  0 mm 891.0 W/m2
13:38 20.1 °F /  -6.6 °C 13.1 °F /  -10.5 °C 1019.5 in /  34520.3 hPa SE 18.5 mph /  29.8 km/h 18.5 mph /  29.8 km/h 64 % 0.0 in /  0 mm 311.0 W/m2
13:43 20.1 °F /  -6.6 °C 12.3 °F /  -10.9 °C 1019.9 in /  34533.8 hPa SE 33.3 mph /  53.6 km/h 33.3 mph /  53.6 km/h 61 % 0.0 in /  0 mm 951.0 W/m2
13:48 20.1 °F /  -6.6 °C 12.6 °F /  -10.8 °C 1020.5 in /  34554.1 hPa SSE 11.3 mph /  18.2 km/h 46.7 mph /  75.2 km/h 62 % 0.0 in /  0 mm 884 W/m2
13:53 19.9 °F /  -6.7 °C 12.2 °F /  -11 °C 1020.2 in /  34544 hPa South 17.7 mph /  28.5 km/h 45.1 mph /  72.6 km/h 61 % 0.0 in /  0 mm 884 W/m2
13:58 19.7 °F /  -6.8 °C 12.0 °F /  -11.1 °C 1019.9 in /  34533.8 hPa South 48.1 mph /  77.4 km/h 48.1 mph /  77.4 km/h 61 % 0.0 in /  0 mm 882.0 W/m2
14:03 19.7 °F /  -6.8 °C 12.2 °F /  -11 °C 1019.9 in /  34533.8 hPa South 54.7 mph /  88 km/h 54.7 mph /  88 km/h 62 % 0.0 in /  0 mm 886.0 W/m2
14:08 19.8 °F /  -6.8 °C 12.1 °F /  -11.1 °C 1020.5 in /  34554.1 hPa SSE 24.1 mph /  38.8 km/h 53.1 mph /  85.5 km/h 61 % 0.0 in /  0 mm 877 W/m2
14:13 20.0 °F /  -6.7 °C 12.2 °F /  -11 °C 1019.9 in /  34533.8 hPa South 35.2 mph /  56.6 km/h 35.2 mph /  56.6 km/h 61 % 0.0 in /  0 mm 830.0 W/m2
14:18 20.1 °F /  -6.6 °C 12.3 °F /  -10.9 °C 1019.9 in /  34533.8 hPa South 54.7 mph /  88 km/h 54.7 mph /  88 km/h 61 % 0.0 in /  0 mm 821.0 W/m2
14:23 20.3 °F /  -6.5 °C 12.3 °F /  -10.9 °C 1019.5 in /  34520.3 hPa South 40.2 mph /  64.7 km/h 40.2 mph /  64.7 km/h 60 % 0.0 in /  0 mm 821.0 W/m2
14:28 20.4 °F /  -6.4 °C 11.9 °F /  -11.2 °C 1019.9 in /  34533.8 hPa SSE 40.2 mph /  64.7 km/h 40.2 mph /  64.7 km/h 58 % 0.0 in /  0 mm 679.0 W/m2
14:33 20.6 °F /  -6.3 °C 12.5 °F /  -10.8 °C 1019.9 in /  34533.8 hPa SSW 33.3 mph /  53.6 km/h 33.3 mph /  53.6 km/h 60 % 0.0 in /  0 mm 715.0 W/m2
14:38 20.7 °F /  -6.3 °C 12.1 °F /  -11.1 °C 1019.9 in /  34533.8 hPa SE 37.0 mph /  59.5 km/h 37.0 mph /  59.5 km/h 58 % 0.0 in /  0 mm 694.0 W/m2
14:43 20.7 °F /  -6.3 °C 12.4 °F /  -10.9 °C 1019.5 in /  34520.3 hPa SSW 25.9 mph /  41.7 km/h 25.9 mph /  41.7 km/h 59 % 0.0 in /  0 mm 701.0 W/m2
14:48 20.6 °F /  -6.3 °C 12.1 °F /  -11.1 °C 1019.9 in /  34533.8 hPa SSE 27.8 mph /  44.7 km/h 27.8 mph /  44.7 km/h 58 % 0.0 in /  0 mm 756.0 W/m2
14:53 20.4 °F /  -6.4 °C 11.6 °F /  -11.3 °C 1019.9 in /  34533.8 hPa SSE 45.1 mph /  72.6 km/h 45.1 mph /  72.6 km/h 57 % 0.0 in /  0 mm 823.0 W/m2
14:58 20.7 °F /  -6.3 °C 12.1 °F /  -11.1 °C 1019.9 in /  34533.8 hPa South 46.7 mph /  75.2 km/h 46.7 mph /  75.2 km/h 58 % 0.0 in /  0 mm 838.0 W/m2
15:03 20.6 °F /  -6.3 °C 12.0 °F /  -11.1 °C 1020.2 in /  34544 hPa SSW 48.1 mph /  77.4 km/h 48.1 mph /  77.4 km/h 58 % 0.0 in /  0 mm 942.0 W/m2
15:08 20.6 °F /  -6.3 °C 12.1 °F /  -11.1 °C 1019.9 in /  34533.8 hPa SE 35.4 mph /  57 km/h 35.4 mph /  57 km/h 58 % 0.0 in /  0 mm 789.0 W/m2
15:13 20.7 °F /  -6.3 °C 12.2 °F /  -11 °C 1019.9 in /  34533.8 hPa SE 37.0 mph /  59.5 km/h 37.0 mph /  59.5 km/h 58 % 0.0 in /  0 mm 279.0 W/m2
15:18 20.6 °F /  -6.3 °C 12.3 °F /  -10.9 °C 1019.9 in /  34533.8 hPa South 32.2 mph /  51.8 km/h 32.2 mph /  51.8 km/h 59 % 0.0 in /  0 mm 279.0 W/m2
15:23 20.7 °F /  -6.3 °C 11.9 °F /  -11.2 °C 1020.2 in /  34544 hPa South 17.7 mph /  28.5 km/h 37.0 mph /  59.5 km/h 57 % 0.0 in /  0 mm 951 W/m2
15:28 20.7 °F /  -6.3 °C 12.2 °F /  -11 °C 1019.9 in /  34533.8 hPa SSE 31.5 mph /  50.7 km/h 31.5 mph /  50.7 km/h 58 % 0.0 in /  0 mm 294.0 W/m2
15:33 21.1 °F /  -6.1 °C 12.3 °F /  -10.9 °C 1019.9 in /  34533.8 hPa South 32.2 mph /  51.8 km/h 32.2 mph /  51.8 km/h 57 % 0.0 in /  0 mm 905.0 W/m2
15:38 21.1 °F /  -6.1 °C 12.3 °F /  -10.9 °C 1019.9 in /  34533.8 hPa South 48.3 mph /  77.7 km/h 48.3 mph /  77.7 km/h 57 % 0.0 in /  0 mm 956.0 W/m2
15:43 20.8 °F /  -6.2 °C 12.0 °F /  -11.1 °C 1019.9 in /  34533.8 hPa SSW 44.4 mph /  71.5 km/h 44.4 mph /  71.5 km/h 57 % 0.0 in /  0 mm 861.0 W/m2
15:48 20.7 °F /  -6.3 °C 12.4 °F /  -10.9 °C 1020.2 in /  34544 hPa South 20.9 mph /  33.6 km/h 37.0 mph /  59.5 km/h 59 % 0.0 in /  0 mm 473 W/m2
15:53 20.7 °F /  -6.3 °C 12.1 °F /  -11.1 °C 1019.9 in /  34533.8 hPa SSW 31.5 mph /  50.7 km/h 31.5 mph /  50.7 km/h 58 % 0.0 in /  0 mm 311.0 W/m2
15:58 20.7 °F /  -6.3 °C 12.2 °F /  -11 °C 1020.2 in /  34544 hPa South 32.2 mph /  51.8 km/h 32.2 mph /  51.8 km/h 58 % 0.0 in /  0 mm 578.0 W/m2
16:03 20.6 °F /  -6.3 °C 12.3 °F /  -10.9 °C 1020.2 in /  34544 hPa South 35.4 mph /  57 km/h 35.4 mph /  57 km/h 59 % 0.0 in /  0 mm 301.0 W/m2
16:08 20.3 °F /  -6.5 °C 12.1 °F /  -11.1 °C 1020.2 in /  34544 hPa SSE 32.2 mph /  51.8 km/h 32.2 mph /  51.8 km/h 59 % 0.0 in /  0 mm 287.0 W/m2
16:13 20.3 °F /  -6.5 °C 12.0 °F /  -11.1 °C 1020.5 in /  34554.1 hPa SSE 20.9 mph /  33.6 km/h 37.0 mph /  59.5 km/h 59 % 0.0 in /  0 mm 290 W/m2
16:18 20.5 °F /  -6.4 °C 12.2 °F /  -11 °C 1020.2 in /  34544 hPa SSW 33.8 mph /  54.4 km/h 33.8 mph /  54.4 km/h 59 % 0.0 in /  0 mm 230.0 W/m2
16:23 20.2 °F /  -6.6 °C 11.9 °F /  -11.2 °C 1020.2 in /  34544 hPa SSE 31.5 mph /  50.7 km/h 31.5 mph /  50.7 km/h 59 % 0.0 in /  0 mm 232.0 W/m2
16:28 20.2 °F /  -6.6 °C 12.2 °F /  -11 °C 1020.2 in /  34544 hPa South 44.4 mph /  71.5 km/h 44.4 mph /  71.5 km/h 60 % 0.0 in /  0 mm 229.0 W/m2
16:33 20.1 °F /  -6.6 °C 11.6 °F /  -11.3 °C 1020.5 in /  34554.1 hPa South 48.1 mph /  77.4 km/h 48.1 mph /  77.4 km/h 58 % 0.0 in /  0 mm 223.0 W/m2
16:38 20.2 °F /  -6.6 °C 11.9 °F /  -11.2 °C 1020.2 in /  34544 hPa South 35.4 mph /  57 km/h 35.4 mph /  57 km/h 59 % 0.0 in /  0 mm 271.0 W/m2
16:43 20.4 °F /  -6.4 °C 12.1 °F /  -11.1 °C 1020.2 in /  34544 hPa SSE 29.0 mph /  46.7 km/h 29.0 mph /  46.7 km/h 59 % 0.0 in /  0 mm 805.0 W/m2
16:48 20.4 °F /  -6.4 °C 11.8 °F /  -11.2 °C 1020.2 in /  34544 hPa South 40.7 mph /  65.5 km/h 40.7 mph /  65.5 km/h 58 % 0.0 in /  0 mm 197.0 W/m2
16:53 20.3 °F /  -6.5 °C 11.7 °F /  -11.3 °C 1020.5 in /  34554.1 hPa South 43.4 mph /  69.8 km/h 43.4 mph /  69.8 km/h 58 % 0.0 in /  0 mm 227.0 W/m2
16:58 20.3 °F /  -6.5 °C 11.7 °F /  -11.3 °C 1020.2 in /  34544 hPa SSE 38.9 mph /  62.6 km/h 38.9 mph /  62.6 km/h 58 % 0.0 in /  0 mm 237.0 W/m2
17:03 20.5 °F /  -6.4 °C 11.9 °F /  -11.2 °C 1020.5 in /  34554.1 hPa SSE 37.0 mph /  59.5 km/h 37.0 mph /  59.5 km/h 58 % 0.0 in /  0 mm 200.0 W/m2
17:08 20.4 °F /  -6.4 °C 11.1 °F /  -11.6 °C 1020.5 in /  34554.1 hPa South 45.1 mph /  72.6 km/h 45.1 mph /  72.6 km/h 55 % 0.0 in /  0 mm 214.0 W/m2
17:13 20.3 °F /  -6.5 °C 11.6 °F /  -11.3 °C 1020.5 in /  34554.1 hPa South 37.0 mph /  59.5 km/h 37.0 mph /  59.5 km/h 57 % 0.0 in /  0 mm 788.0 W/m2
17:18 20.4 °F /  -6.4 °C 11.1 °F /  -11.6 °C 1020.9 in /  34567.7 hPa South 22.5 mph /  36.2 km/h 40.2 mph /  64.7 km/h 55 % 0.0 in /  0 mm 752 W/m2
17:23 20.4 °F /  -6.4 °C 11.4 °F /  -11.4 °C 1020.5 in /  34554.1 hPa South 35.2 mph /  56.6 km/h 35.2 mph /  56.6 km/h 56 % 0.0 in /  0 mm 777.0 W/m2
17:28 20.5 °F /  -6.4 °C 11.7 °F /  -11.3 °C 1020.5 in /  34554.1 hPa SE 40.7 mph /  65.5 km/h 40.7 mph /  65.5 km/h 57 % 0.0 in /  0 mm 272.0 W/m2
17:33 20.5 °F /  -6.4 °C 11.7 °F /  -11.3 °C 1020.5 in /  34554.1 hPa SSE 37.0 mph /  59.5 km/h 37.0 mph /  59.5 km/h 57 % 0.0 in /  0 mm 214.0 W/m2
17:38 20.3 °F /  -6.5 °C 11.6 °F /  -11.3 °C 1020.5 in /  34554.1 hPa South 29.6 mph /  47.6 km/h 29.6 mph /  47.6 km/h 57 % 0.0 in /  0 mm 694.0 W/m2
17:43 20.4 °F /  -6.4 °C 11.6 °F /  -11.3 °C 1020.5 in /  34554.1 hPa SSW 38.9 mph /  62.6 km/h 38.9 mph /  62.6 km/h 57 % 0.0 in /  0 mm 679.0 W/m2
17:48 20.3 °F /  -6.5 °C 11.6 °F /  -11.3 °C 1020.2 in /  34544 hPa SSE 25.9 mph /  41.7 km/h 25.9 mph /  41.7 km/h 57 % 0.0 in /  0 mm 190.0 W/m2
17:53 20.2 °F /  -6.6 °C 11.4 °F /  -11.4 °C 1020.9 in /  34567.7 hPa SSE 17.7 mph /  28.5 km/h 49.9 mph /  80.3 km/h 57 % 0.0 in /  0 mm 209 W/m2
17:58 20.1 °F /  -6.6 °C 11.6 °F /  -11.3 °C 1020.9 in /  34567.7 hPa SSE 40.7 mph /  65.5 km/h 40.7 mph /  65.5 km/h 58 % 0.0 in /  0 mm 605.0 W/m2
18:03 20.3 °F /  -6.5 °C 11.7 °F /  -11.3 °C 1020.9 in /  34567.7 hPa South 32.2 mph /  51.8 km/h 32.2 mph /  51.8 km/h 58 % 0.0 in /  0 mm 524.0 W/m2
18:08 20.1 °F /  -6.6 °C 11.8 °F /  -11.2 °C 1020.9 in /  34567.7 hPa SSE 31.5 mph /  50.7 km/h 31.5 mph /  50.7 km/h 59 % 0.0 in /  0 mm 153.0 W/m2
18:13 20.1 °F /  -6.6 °C 12.1 °F /  -11.1 °C 1020.5 in /  34554.1 hPa South 29.6 mph /  47.6 km/h 29.6 mph /  47.6 km/h 60 % 0.0 in /  0 mm 211.0 W/m2
18:18 20.1 °F /  -6.6 °C 12.1 °F /  -11.1 °C 1020.9 in /  34567.7 hPa SSW 13.0 mph /  20.9 km/h 13.0 mph /  20.9 km/h 60 % 0.0 in /  0 mm 501.0 W/m2
18:23 20.1 °F /  -6.6 °C 11.8 °F /  -11.2 °C 1020.5 in /  34554.1 hPa South 24.1 mph /  38.8 km/h 24.1 mph /  38.8 km/h 59 % 0.0 in /  0 mm 135.0 W/m2
18:28 19.8 °F /  -6.8 °C 11.8 °F /  -11.2 °C 1020.9 in /  34567.7 hPa SSE 12.9 mph /  20.8 km/h 33.8 mph /  54.4 km/h 60 % 0.0 in /  0 mm 162 W/m2
18:33 19.7 °F /  -6.8 °C 12.0 °F /  -11.1 °C 1020.9 in /  34567.7 hPa South 35.4 mph /  57 km/h 35.4 mph /  57 km/h 61 % 0.0 in /  0 mm 513.0 W/m2
18:38 19.7 °F /  -6.8 °C 11.9 °F /  -11.2 °C 1020.9 in /  34567.7 hPa SSE 38.9 mph /  62.6 km/h 38.9 mph /  62.6 km/h 61 % 0.0 in /  0 mm 121.0 W/m2
18:43 19.7 °F /  -6.8 °C 12.2 °F /  -11 °C 1020.9 in /  34567.7 hPa SSE 30.6 mph /  49.2 km/h 30.6 mph /  49.2 km/h 62 % 0.0 in /  0 mm 445.0 W/m2
18:48 19.8 °F /  -6.8 °C 12.1 °F /  -11.1 °C 1021.2 in /  34577.8 hPa SSE 17.7 mph /  28.5 km/h 43.4 mph /  69.8 km/h 61 % 0.0 in /  0 mm 95 W/m2
18:53 19.6 °F /  -6.9 °C 11.9 °F /  -11.2 °C 1020.9 in /  34567.7 hPa SE 30.6 mph /  49.2 km/h 30.6 mph /  49.2 km/h 61 % 0.0 in /  0 mm 91.0 W/m2
18:58 19.6 °F /  -6.9 °C 12.1 °F /  -11.1 °C 1020.9 in /  34567.7 hPa SSE 20.4 mph /  32.8 km/h 20.4 mph /  32.8 km/h 62 % 0.0 in /  0 mm 79.0 W/m2
19:03 19.6 °F /  -6.9 °C 12.1 °F /  -11.1 °C 1020.9 in /  34567.7 hPa SSE 27.4 mph /  44.1 km/h 27.4 mph /  44.1 km/h 62 % 0.0 in /  0 mm 213.0 W/m2
19:08 19.4 °F /  -7 °C 11.9 °F /  -11.2 °C 1020.9 in /  34567.7 hPa SSE 22.5 mph /  36.2 km/h 22.5 mph /  36.2 km/h 62 % 0.0 in /  0 mm 107.0 W/m2
19:13 19.4 °F /  -7 °C 11.9 °F /  -11.2 °C 1021.2 in /  34577.8 hPa SSE 14.5 mph /  23.3 km/h 30.6 mph /  49.2 km/h 62 % 0.0 in /  0 mm 278 W/m2
19:18 19.3 °F /  -7.1 °C 11.8 °F /  -11.2 °C 1021.2 in /  34577.8 hPa South 14.5 mph /  23.3 km/h 27.4 mph /  44.1 km/h 62 % 0.0 in /  0 mm 127 W/m2
19:22 19.3 °F /  -7.1 °C 11.8 °F /  -11.2 °C 1021.2 in /  34577.8 hPa SSE 12.9 mph /  20.8 km/h 29.0 mph /  46.7 km/h 62 % 0.0 in /  0 mm 290 W/m2
19:27 19.3 °F /  -7.1 °C 11.8 °F /  -11.2 °C 1021.2 in /  34577.8 hPa South 16.1 mph /  25.9 km/h 33.8 mph /  54.4 km/h 62 % 0.0 in /  0 mm 272 W/m2
19:32 19.5 °F /  -6.9 °C 12.0 °F /  -11.1 °C 1021.2 in /  34577.8 hPa South 16.1 mph /  25.9 km/h 22.5 mph /  36.2 km/h 62 % 0.0 in /  0 mm 258 W/m2
19:37 19.4 °F /  -7 °C 11.9 °F /  -11.2 °C 1021.2 in /  34577.8 hPa South 14.5 mph /  23.3 km/h 32.2 mph /  51.8 km/h 62 % 0.0 in /  0 mm 241 W/m2
19:42 19.3 °F /  -7.1 °C 11.8 °F /  -11.2 °C 1021.2 in /  34577.8 hPa South 17.7 mph /  28.5 km/h 30.6 mph /  49.2 km/h 62 % 0.0 in /  0 mm 221 W/m2
19:47 19.3 °F /  -7.1 °C 11.8 °F /  -11.2 °C 1021.2 in /  34577.8 hPa South 19.3 mph /  31.1 km/h 27.4 mph /  44.1 km/h 62 % 0.0 in /  0 mm 202 W/m2
19:52 19.3 °F /  -7.1 °C 11.8 °F /  -11.2 °C 1021.2 in /  34577.8 hPa SSE 16.1 mph /  25.9 km/h 38.6 mph /  62.1 km/h 62 % 0.0 in /  0 mm 186 W/m2
19:57 19.1 °F /  -7.2 °C 11.9 °F /  -11.2 °C 1021.2 in /  34577.8 hPa SSE 17.7 mph /  28.5 km/h 32.2 mph /  51.8 km/h 63 % 0.0 in /  0 mm 169 W/m2
20:02 19.1 °F /  -7.2 °C 11.7 °F /  -11.3 °C 1021.2 in /  34577.8 hPa SSE 19.3 mph /  31.1 km/h 33.8 mph /  54.4 km/h 62 % 0.0 in /  0 mm 151 W/m2
20:07 19.2 °F /  -7.1 °C 11.7 °F /  -11.3 °C 1021.2 in /  34577.8 hPa SSE 16.1 mph /  25.9 km/h 16.1 mph /  25.9 km/h 62 % 0.0 in /  0 mm 135 W/m2
20:12 19.2 °F /  -7.1 °C 11.7 °F /  -11.3 °C 1021.2 in /  34577.8 hPa South 12.9 mph /  20.8 km/h 20.9 mph /  33.6 km/h 62 % 0.0 in /  0 mm 116 W/m2
20:17 19.1 °F /  -7.2 °C 11.9 °F /  -11.2 °C 1021.2 in /  34577.8 hPa South 11.3 mph /  18.2 km/h 22.5 mph /  36.2 km/h 63 % 0.0 in /  0 mm 102 W/m2
20:22 19.1 °F /  -7.2 °C 11.4 °F /  -11.4 °C 1021.2 in /  34577.8 hPa SSE 11.3 mph /  18.2 km/h 29.0 mph /  46.7 km/h 61 % 0.0 in /  0 mm 86 W/m2
20:27 19.0 °F /  -7.2 °C 11.8 °F /  -11.2 °C 1021.2 in /  34577.8 hPa SSE 9.7 mph /  15.6 km/h 17.7 mph /  28.5 km/h 63 % 0.0 in /  0 mm 72 W/m2
20:32 18.9 °F /  -7.3 °C 11.7 °F /  -11.3 °C 1021.2 in /  34577.8 hPa SSE 8.0 mph /  12.9 km/h 24.1 mph /  38.8 km/h 63 % 0.0 in /  0 mm 62 W/m2
20:37 18.7 °F /  -7.4 °C 11.8 °F /  -11.2 °C 1020.9 in /  34567.7 hPa South 7.4 mph /  11.9 km/h 7.4 mph /  11.9 km/h 64 % 0.0 in /  0 mm 40.0 W/m2
20:42 18.6 °F /  -7.4 °C 11.7 °F /  -11.3 °C 1021.2 in /  34577.8 hPa South 8.0 mph /  12.9 km/h 19.3 mph /  31.1 km/h 64 % 0.0 in /  0 mm 33 W/m2
20:47 18.4 °F /  -7.6 °C 11.4 °F /  -11.4 °C 1020.9 in /  34567.7 hPa SSE 33.3 mph /  53.6 km/h 33.3 mph /  53.6 km/h 64 % 0.0 in /  0 mm 30.0 W/m2
20:52 18.3 °F /  -7.6 °C 11.6 °F /  -11.3 °C 1021.2 in /  34577.8 hPa South 12.9 mph /  20.8 km/h 19.3 mph /  31.1 km/h 65 % 0.0 in /  0 mm 21 W/m2
20:57 18.1 °F /  -7.7 °C 11.6 °F /  -11.3 °C 1021.2 in /  34577.8 hPa South 30.6 mph /  49.2 km/h 30.6 mph /  49.2 km/h 66 % 0.0 in /  0 mm 18.0 W/m2
21:07 18.1 °F /  -7.7 °C 11.2 °F /  -11.6 °C 1020.9 in /  34567.7 hPa SSE 27.8 mph /  44.7 km/h 27.8 mph /  44.7 km/h 64 % 0.0 in /  0 mm 11.0 W/m2
21:12 18.0 °F /  -7.8 °C 11.3 °F /  -11.5 °C 1021.2 in /  34577.8 hPa SE 25.7 mph /  41.4 km/h 25.7 mph /  41.4 km/h 65 % 0.0 in /  0 mm 7.0 W/m2
21:17 17.9 °F /  -7.8 °C 11.0 °F /  -11.7 °C 1021.6 in /  34591.4 hPa SSE 12.9 mph /  20.8 km/h 27.4 mph /  44.1 km/h 64 % 0.0 in /  0 mm 0 W/m2
21:22 17.9 °F /  -7.8 °C 11.2 °F /  -11.6 °C 1021.6 in /  34591.4 hPa SSE 14.5 mph /  23.3 km/h 25.7 mph /  41.4 km/h 65 % 0.0 in /  0 mm 0 W/m2
21:27 17.8 °F /  -7.9 °C 11.1 °F /  -11.6 °C 1021.2 in /  34577.8 hPa South 22.5 mph /  36.2 km/h 22.5 mph /  36.2 km/h 65 % 0.0 in /  0 mm 0.0 W/m2
21:32 17.7 °F /  -7.9 °C 11.2 °F /  -11.6 °C 1021.2 in /  34577.8 hPa SSE 25.9 mph /  41.7 km/h 25.9 mph /  41.7 km/h 66 % 0.0 in /  0 mm 0.0 W/m2
21:37 17.6 °F /  -8 °C 11.2 °F /  -11.6 °C 1021.6 in /  34591.4 hPa SSE 11.3 mph /  18.2 km/h 25.7 mph /  41.4 km/h 66 % 0.0 in /  0 mm 0 W/m2
21:42 17.4 °F /  -8.1 °C 11.2 °F /  -11.6 °C 1021.2 in /  34577.8 hPa SSE 14.8 mph /  23.8 km/h 14.8 mph /  23.8 km/h 67 % 0.0 in /  0 mm 0.0 W/m2
21:47 17.3 °F /  -8.2 °C 11.3 °F /  -11.5 °C 1021.2 in /  34577.8 hPa SSE 11.3 mph /  18.2 km/h 11.3 mph /  18.2 km/h 68 % 0.0 in /  0 mm 0.0 W/m2
21:52 17.1 °F /  -8.3 °C 11.2 °F /  -11.6 °C 1021.9 in /  34601.5 hPa SSE 8.0 mph /  12.9 km/h 9.7 mph /  15.6 km/h 68 % 0.0 in /  0 mm 0 W/m2
21:57 17.0 °F /  -8.3 °C 11.1 °F /  -11.6 °C 1021.6 in /  34591.4 hPa SSE 11.1 mph /  17.9 km/h 11.1 mph /  17.9 km/h 68 % 0.0 in /  0 mm 0.0 W/m2
22:03 16.9 °F /  -8.4 °C 11.2 °F /  -11.6 °C 1021.9 in /  34601.5 hPa SSE 4.8 mph /  7.7 km/h 11.3 mph /  18.2 km/h 69 % 0.0 in /  0 mm 0 W/m2
22:08 16.8 °F /  -8.4 °C 11.1 °F /  -11.6 °C 1021.9 in /  34601.5 hPa SSE 4.8 mph /  7.7 km/h 6.4 mph /  10.3 km/h 69 % 0.0 in /  0 mm 0 W/m2
22:13 16.7 °F /  -8.5 °C 11.0 °F /  -11.7 °C 1021.9 in /  34601.5 hPa SE 3.2 mph /  5.1 km/h 9.7 mph /  15.6 km/h 69 % 0.0 in /  0 mm 0 W/m2
22:18 16.8 °F /  -8.4 °C 11.1 °F /  -11.6 °C 1022.2 in /  34611.7 hPa SSE 4.8 mph /  7.7 km/h 8.0 mph /  12.9 km/h 69 % 0.0 in /  0 mm 0 W/m2
22:23 16.8 °F /  -8.4 °C 11.1 °F /  -11.6 °C 1022.2 in /  34611.7 hPa South 4.8 mph /  7.7 km/h 9.7 mph /  15.6 km/h 69 % 0.0 in /  0 mm 0 W/m2
22:28 16.7 °F /  -8.5 °C 11.2 °F /  -11.6 °C 1022.2 in /  34611.7 hPa South 6.4 mph /  10.3 km/h 9.7 mph /  15.6 km/h 70 % 0.0 in /  0 mm 0 W/m2
22:33 16.6 °F /  -8.6 °C 11.1 °F /  -11.6 °C 1022.2 in /  34611.7 hPa South 4.8 mph /  7.7 km/h 8.0 mph /  12.9 km/h 70 % 0.0 in /  0 mm 0 W/m2
22:38 16.5 °F /  -8.6 °C 11.0 °F /  -11.7 °C 1022.2 in /  34611.7 hPa South 3.2 mph /  5.1 km/h 3.2 mph /  5.1 km/h 70 % 0.0 in /  0 mm 0 W/m2
22:43 16.4 °F /  -8.7 °C 10.9 °F /  -11.7 °C 1022.2 in /  34611.7 hPa South 1.6 mph /  2.6 km/h 1.6 mph /  2.6 km/h 70 % 0.0 in /  0 mm 0 W/m2
22:48 16.3 °F /  -8.7 °C 11.1 °F /  -11.6 °C 1022.2 in /  34611.7 hPa Calm   4.8 mph /  7.7 km/h 71 % 0.0 in /  0 mm 0 W/m2
22:53 16.2 °F /  -8.8 °C 10.9 °F /  -11.7 °C 1022.2 in /  34611.7 hPa SSE 1.6 mph /  2.6 km/h 9.7 mph /  15.6 km/h 71 % 0.0 in /  0 mm 0 W/m2
22:58 16.1 °F /  -8.8 °C 11.1 °F /  -11.6 °C 1022.2 in /  34611.7 hPa SSE 1.6 mph /  2.6 km/h 9.7 mph /  15.6 km/h 72 % 0.0 in /  0 mm 0 W/m2
23:03 15.9 °F /  -8.9 °C 10.8 °F /  -11.8 °C 1022.2 in /  34611.7 hPa SSE 3.2 mph /  5.1 km/h 12.9 mph /  20.8 km/h 72 % 0.0 in /  0 mm 0 W/m2
23:08 15.7 °F /  -9.1 °C 10.9 °F /  -11.7 °C 1022.2 in /  34611.7 hPa SSE 4.8 mph /  7.7 km/h 11.3 mph /  18.2 km/h 73 % 0.0 in /  0 mm 0 W/m2
23:13 15.6 °F /  -9.1 °C 11.0 °F /  -11.7 °C 1022.2 in /  34611.7 hPa SE 6.4 mph /  10.3 km/h 14.5 mph /  23.3 km/h 74 % 0.0 in /  0 mm 0 W/m2
23:18 15.3 °F /  -9.3 °C 10.7 °F /  -11.8 °C 1022.2 in /  34611.7 hPa SE 8.0 mph /  12.9 km/h 16.1 mph /  25.9 km/h 74 % 0.0 in /  0 mm 0 W/m2
23:23 15.2 °F /  -9.3 °C 10.8 °F /  -11.8 °C 1022.6 in /  34625.2 hPa SE 8.0 mph /  12.9 km/h 16.1 mph /  25.9 km/h 75 % 0.0 in /  0 mm 0 W/m2
23:28 15.1 °F /  -9.4 °C 10.7 °F /  -11.8 °C 1022.2 in /  34611.7 hPa SSE 8.0 mph /  12.9 km/h 12.9 mph /  20.8 km/h 75 % 0.0 in /  0 mm 0 W/m2
23:33 14.9 °F /  -9.5 °C 10.5 °F /  -11.9 °C 1022.2 in /  34611.7 hPa SE 6.4 mph /  10.3 km/h 16.1 mph /  25.9 km/h 75 % 0.0 in /  0 mm 0 W/m2
23:38 14.8 °F /  -9.6 °C 10.6 °F /  -11.9 °C 1022.6 in /  34625.2 hPa SE 8.0 mph /  12.9 km/h 16.1 mph /  25.9 km/h 76 % 0.0 in /  0 mm 0 W/m2
23:43 14.7 °F /  -9.6 °C 10.5 °F /  -11.9 °C 1022.2 in /  34611.7 hPa SSE 8.0 mph /  12.9 km/h 11.3 mph /  18.2 km/h 76 % 0.0 in /  0 mm 0 W/m2
23:48 14.7 °F /  -9.6 °C 10.5 °F /  -11.9 °C 1022.2 in /  34611.7 hPa ESE 4.8 mph /  7.7 km/h 12.9 mph /  20.8 km/h 76 % 0.0 in /  0 mm 0 W/m2
23:53 14.7 °F /  -9.6 °C 10.7 °F /  -11.8 °C 1022.2 in /  34611.7 hPa SE 4.8 mph /  7.7 km/h 11.3 mph /  18.2 km/h 77 % 0.0 in /  0 mm 0 W/m2
23:58 14.6 °F /  -9.7 °C 10.6 °F /  -11.9 °C 1022.2 in /  34611.7 hPa SE 4.8 mph /  7.7 km/h 12.9 mph /  20.8 km/h 77 % 0.0 in /  0 mm 0 W/m2
Meteocoruña
Agradecimientos a Weather Underground - 3 mb